首页
METAR-TAF:

METAR-TAF

机场 :

Creech_Air_Force_Base

Indian Springs, 内华达州, 美国

纬度: 36-32N, 经度: 115-54W, 海拔: 952米

当前天气观测

该预报发布于47分钟前的09:58 UTC
静风
温度 2°C
湿度 69%
气压 1027 hPa
能見度: 16.1公里
天空无云

METAR: KINS 270958Z AUTO 00000KT 10SM CLR 02/M03 A3032 RMK AO2 SLPNO T00161031 $

时间: 02:45 (10:45 UTC)

预报

该预报发布于5小时和41分钟前的05:04 UTC
预报有效从27日的 05点(UTC)到 28日的 11点(UTC)
风速6节,风向多变
能见度10公里或以上
天空无云

TAF: KINS 270504Z 2705/2811 VRB06KT 9999 SKC QNH3023INS TX21/2723Z TN00/2713Z

超过4000个机场的气象观测和天气预报(METAR&TAF报告)。

可查询的气象台以黄色和红色小点在地图上表示。

将鼠标移到小点上方,可查看气象台名称。

然后点击查看天气观测和预报。

如需切换地图:点击带黑十字的绿色按钮放大地图;点击带横线的绿色按钮缩小地图;或者点击绿色箭头查看邻近地区的地图。


METAR-TAF: